Weather at Naha Airport / JASDF Naha Air Base

Public forecast

Using degrees Celsius for public forecast. Weather courtesy of forecast.io.

Current aviation weather report (METAR) for Naha Airport / JASDF Naha Air Base

Retrieved 2021/07/23 23:06 UTC (8 minutes ago):

ROAH 232306Z 14030G45KT 2500 R18L/P2000N R18R/2000N +SHRA FEW008 BKN012 FEW025TCU 27/26 Q0991 RMK 1ST008 6CU012 2TCU025 A2927 TCU 5KM S MOV N

Aviation forecast (TAF) for Naha Airport / JASDF Naha Air Base

Retrieved 2021/07/23 18:31 UTC (5 hours ago):

TAF ROAH 231705Z 2318/2500 14030KT 8000 -SHRA FEW008 BKN015 TEMPO 2318/2403 13035G45KT 3000 +SHRA FEW005 BKN010 FEW020CB TEMPO 2403/2406 16030G40KT 4000 SHRA FEW005 BKN010 FEW020CB TEMPO 2406/2418 17025G38KT BECMG 2412/2415 17020KT